sensor_id;sensor_type;location;lat;lon;timestamp;P1;durP1;ratioP1;P2;durP2;ratioP2
72649;SDS011;61467;50.674;4.618;2022-12-11T00:00:23;25.00;;;8.75;;
72649;SDS011;61467;50.674;4.618;2022-12-11T00:02:51;21.92;;;8.18;;
72649;SDS011;61467;50.674;4.618;2022-12-11T00:05:18;21.60;;;8.45;;
72649;SDS011;61467;50.674;4.618;2022-12-11T00:07:44;20.97;;;8.83;;
72649;SDS011;61467;50.674;4.618;2022-12-11T00:10:11;17.80;;;6.93;;
72649;SDS011;61467;50.674;4.618;2022-12-11T00:12:38;21.00;;;7.97;;
72649;SDS011;61467;50.674;4.618;2022-12-11T00:15:05;19.08;;;7.72;;
72649;SDS011;61467;50.674;4.618;2022-12-11T00:17:32;19.33;;;8.00;;
72649;SDS011;61467;50.674;4.618;2022-12-11T00:20:00;21.63;;;7.93;;
72649;SDS011;61467;50.674;4.618;2022-12-11T00:22:28;22.08;;;8.40;;
72649;SDS011;61467;50.674;4.618;2022-12-11T00:24:55;21.75;;;8.25;;
72649;SDS011;61467;50.674;4.618;2022-12-11T00:27:21;23.27;;;9.05;;
72649;SDS011;61467;50.674;4.618;2022-12-11T00:29:48;26.48;;;9.90;;
72649;SDS011;61467;50.674;4.618;2022-12-11T00:32:15;21.33;;;8.53;;
72649;SDS011;61467;50.674;4.618;2022-12-11T00:34:42;25.35;;;7.78;;
72649;SDS011;61467;50.674;4.618;2022-12-11T00:37:10;23.40;;;8.98;;
72649;SDS011;61467;50.674;4.618;2022-12-11T00:39:36;22.98;;;8.75;;
72649;SDS011;61467;50.674;4.618;2022-12-11T00:42:03;24.88;;;8.98;;
72649;SDS011;61467;50.674;4.618;2022-12-11T00:44:30;16.53;;;6.97;;
72649;SDS011;61467;50.674;4.618;2022-12-11T00:46:57;23.55;;;8.52;;
72649;SDS011;61467;50.674;4.618;2022-12-11T00:49:24;20.83;;;7.63;;
72649;SDS011;61467;50.674;4.618;2022-12-11T00:51:51;21.60;;;8.68;;
72649;SDS011;61467;50.674;4.618;2022-12-11T00:54:19;25.10;;;8.82;;
72649;SDS011;61467;50.674;4.618;2022-12-11T00:56:45;23.03;;;8.53;;
72649;SDS011;61467;50.674;4.618;2022-12-11T00:59:12;23.73;;;8.55;;
72649;SDS011;61467;50.674;4.618;2022-12-11T01:01:39;22.50;;;8.90;;
72649;SDS011;61467;50.674;4.618;2022-12-11T01:04:06;22.98;;;8.82;;
72649;SDS011;61467;50.674;4.618;2022-12-11T01:06:32;22.35;;;8.40;;
72649;SDS011;61467;50.674;4.618;2022-12-11T01:08:59;24.47;;;8.97;;
72649;SDS011;61467;50.674;4.618;2022-12-11T01:11:45;20.65;;;8.77;;
72649;SDS011;61467;50.674;4.618;2022-12-11T01:14:12;22.38;;;9.00;;
72649;SDS011;61467;50.674;4.618;2022-12-11T01:16:38;29.40;;;9.85;;
72649;SDS011;61467;50.674;4.618;2022-12-11T01:19:05;25.20;;;9.13;;
72649;SDS011;61467;50.674;4.618;2022-12-11T01:21:32;25.03;;;9.67;;
72649;SDS011;61467;50.674;4.618;2022-12-11T01:23:59;24.02;;;8.93;;
72649;SDS011;61467;50.674;4.618;2022-12-11T01:26:25;23.60;;;8.48;;
72649;SDS011;61467;50.674;4.618;2022-12-11T01:28:56;22.42;;;8.65;;
72649;SDS011;61467;50.674;4.618;2022-12-11T01:31:23;23.08;;;8.38;;
72649;SDS011;61467;50.674;4.618;2022-12-11T01:33:52;25.80;;;8.93;;
72649;SDS011;61467;50.674;4.618;2022-12-11T01:36:19;22.83;;;8.77;;
72649;SDS011;61467;50.674;4.618;2022-12-11T01:38:47;23.20;;;8.57;;
72649;SDS011;61467;50.674;4.618;2022-12-11T01:41:14;21.35;;;8.77;;
72649;SDS011;61467;50.674;4.618;2022-12-11T01:43:56;20.75;;;9.38;;
72649;SDS011;61467;50.674;4.618;2022-12-11T01:46:24;22.57;;;8.73;;
72649;SDS011;61467;50.674;4.618;2022-12-11T01:48:51;20.58;;;8.60;;
72649;SDS011;61467;50.674;4.618;2022-12-11T01:51:19;25.30;;;9.40;;
72649;SDS011;61467;50.674;4.618;2022-12-11T01:53:47;24.33;;;9.10;;
72649;SDS011;61467;50.674;4.618;2022-12-11T01:56:17;21.33;;;8.73;;
72649;SDS011;61467;50.674;4.618;2022-12-11T01:58:45;23.50;;;9.40;;
72649;SDS011;61467;50.674;4.618;2022-12-11T02:01:17;22.15;;;8.45;;
72649;SDS011;61467;50.674;4.618;2022-12-11T02:03:50;20.77;;;7.88;;
72649;SDS011;61467;50.674;4.618;2022-12-11T02:06:31;22.77;;;8.85;;
72649;SDS011;61467;50.674;4.618;2022-12-11T02:09:00;21.52;;;7.85;;
72649;SDS011;61467;50.674;4.618;2022-12-11T02:11:28;23.43;;;8.67;;
72649;SDS011;61467;50.674;4.618;2022-12-11T02:14:04;23.08;;;8.82;;
72649;SDS011;61467;50.674;4.618;2022-12-11T02:16:40;21.27;;;7.93;;
72649;SDS011;61467;50.674;4.618;2022-12-11T02:19:16;24.23;;;8.75;;
72649;SDS011;61467;50.674;4.618;2022-12-11T02:21:53;22.15;;;9.02;;
72649;SDS011;61467;50.674;4.618;2022-12-11T02:24:31;26.10;;;8.80;;
72649;SDS011;61467;50.674;4.618;2022-12-11T02:27:17;25.35;;;8.18;;
72649;SDS011;61467;50.674;4.618;2022-12-11T02:29:54;24.00;;;8.93;;
72649;SDS011;61467;50.674;4.618;2022-12-11T02:32:28;26.00;;;8.98;;
72649;SDS011;61467;50.674;4.618;2022-12-11T02:35:01;22.38;;;9.18;;
72649;SDS011;61467;50.674;4.618;2022-12-11T02:37:34;21.17;;;9.07;;
72649;SDS011;61467;50.674;4.618;2022-12-11T02:40:06;24.10;;;9.32;;
72649;SDS011;61467;50.674;4.618;2022-12-11T02:42:36;22.40;;;9.00;;
72649;SDS011;61467;50.674;4.618;2022-12-11T02:45:08;25.60;;;8.82;;
72649;SDS011;61467;50.674;4.618;2022-12-11T02:47:36;24.65;;;8.50;;
72649;SDS011;61467;50.674;4.618;2022-12-11T02:50:05;24.53;;;9.30;;
72649;SDS011;61467;50.674;4.618;2022-12-11T02:52:36;26.17;;;9.55;;
72649;SDS011;61467;50.674;4.618;2022-12-11T02:55:07;20.20;;;8.55;;
72649;SDS011;61467;50.674;4.618;2022-12-11T02:57:37;23.15;;;9.30;;
72649;SDS011;61467;50.674;4.618;2022-12-11T03:00:10;23.20;;;9.07;;
72649;SDS011;61467;50.674;4.618;2022-12-11T03:02:37;21.93;;;7.97;;
72649;SDS011;61467;50.674;4.618;2022-12-11T03:05:06;20.98;;;8.45;;
72649;SDS011;61467;50.674;4.618;2022-12-11T03:07:35;23.00;;;9.05;;
72649;SDS011;61467;50.674;4.618;2022-12-11T03:10:04;20.45;;;8.18;;
72649;SDS011;61467;50.674;4.618;2022-12-11T03:12:33;23.83;;;8.07;;
72649;SDS011;61467;50.674;4.618;2022-12-11T03:15:03;25.47;;;9.50;;
72649;SDS011;61467;50.674;4.618;2022-12-11T03:17:34;20.67;;;7.50;;
72649;SDS011;61467;50.674;4.618;2022-12-11T03:20:10;21.85;;;8.10;;
72649;SDS011;61467;50.674;4.618;2022-12-11T03:22:42;22.83;;;8.15;;
72649;SDS011;61467;50.674;4.618;2022-12-11T03:25:15;21.55;;;7.97;;
72649;SDS011;61467;50.674;4.618;2022-12-11T03:27:46;20.00;;;7.23;;
72649;SDS011;61467;50.674;4.618;2022-12-11T03:30:19;21.50;;;8.35;;
72649;SDS011;61467;50.674;4.618;2022-12-11T03:32:48;23.73;;;9.27;;
72649;SDS011;61467;50.674;4.618;2022-12-11T03:35:19;22.42;;;8.18;;
72649;SDS011;61467;50.674;4.618;2022-12-11T03:37:50;21.80;;;8.77;;
72649;SDS011;61467;50.674;4.618;2022-12-11T03:40:19;23.13;;;7.70;;
72649;SDS011;61467;50.674;4.618;2022-12-11T03:42:49;23.20;;;8.32;;
72649;SDS011;61467;50.674;4.618;2022-12-11T03:45:18;26.40;;;8.88;;
72649;SDS011;61467;50.674;4.618;2022-12-11T03:47:47;25.58;;;9.23;;
72649;SDS011;61467;50.674;4.618;2022-12-11T03:50:15;24.63;;;9.93;;
72649;SDS011;61467;50.674;4.618;2022-12-11T03:52:44;21.53;;;8.67;;
72649;SDS011;61467;50.674;4.618;2022-12-11T03:55:13;26.20;;;8.10;;
72649;SDS011;61467;50.674;4.618;2022-12-11T03:57:42;26.88;;;8.93;;
72649;SDS011;61467;50.674;4.618;2022-12-11T04:00:09;27.20;;;9.07;;
72649;SDS011;61467;50.674;4.618;2022-12-11T04:02:38;26.83;;;9.68;;
72649;SDS011;61467;50.674;4.618;2022-12-11T04:05:07;26.57;;;8.40;;
72649;SDS011;61467;50.674;4.618;2022-12-11T04:07:35;26.10;;;9.48;;
72649;SDS011;61467;50.674;4.618;2022-12-11T04:10:02;24.50;;;8.20;;
72649;SDS011;61467;50.674;4.618;2022-12-11T04:12:30;24.33;;;9.18;;
72649;SDS011;61467;50.674;4.618;2022-12-11T04:14:57;23.17;;;9.38;;
72649;SDS011;61467;50.674;4.618;2022-12-11T04:17:28;23.73;;;8.60;;
72649;SDS011;61467;50.674;4.618;2022-12-11T04:20:14;24.02;;;8.63;;
72649;SDS011;61467;50.674;4.618;2022-12-11T04:22:59;24.55;;;8.82;;
72649;SDS011;61467;50.674;4.618;2022-12-11T04:25:46;23.85;;;8.23;;
72649;SDS011;61467;50.674;4.618;2022-12-11T04:28:12;24.85;;;9.93;;
72649;SDS011;61467;50.674;4.618;2022-12-11T04:30:39;27.70;;;9.47;;
72649;SDS011;61467;50.674;4.618;2022-12-11T04:33:06;25.88;;;9.75;;
72649;SDS011;61467;50.674;4.618;2022-12-11T04:35:34;24.02;;;9.80;;
72649;SDS011;61467;50.674;4.618;2022-12-11T04:38:01;22.67;;;9.13;;
72649;SDS011;61467;50.674;4.618;2022-12-11T04:40:28;25.73;;;10.15;;
72649;SDS011;61467;50.674;4.618;2022-12-11T04:42:55;23.53;;;9.27;;
72649;SDS011;61467;50.674;4.618;2022-12-11T04:45:21;27.13;;;9.55;;
72649;SDS011;61467;50.674;4.618;2022-12-11T04:47:48;25.02;;;9.93;;
72649;SDS011;61467;50.674;4.618;2022-12-11T04:50:15;25.00;;;9.57;;
72649;SDS011;61467;50.674;4.618;2022-12-11T04:52:43;28.88;;;10.05;;
72649;SDS011;61467;50.674;4.618;2022-12-11T04:55:10;24.70;;;9.70;;
72649;SDS011;61467;50.674;4.618;2022-12-11T04:57:37;28.00;;;9.70;;
72649;SDS011;61467;50.674;4.618;2022-12-11T05:00:05;26.92;;;9.70;;
72649;SDS011;61467;50.674;4.618;2022-12-11T05:02:34;26.85;;;9.30;;
72649;SDS011;61467;50.674;4.618;2022-12-11T05:05:01;27.77;;;9.50;;
72649;SDS011;61467;50.674;4.618;2022-12-11T05:07:28;28.87;;;10.37;;
72649;SDS011;61467;50.674;4.618;2022-12-11T05:09:57;28.73;;;10.43;;
72649;SDS011;61467;50.674;4.618;2022-12-11T05:12:24;24.73;;;9.65;;
72649;SDS011;61467;50.674;4.618;2022-12-11T05:14:53;25.30;;;10.75;;
72649;SDS011;61467;50.674;4.618;2022-12-11T05:17:20;25.13;;;10.43;;
72649;SDS011;61467;50.674;4.618;2022-12-11T05:19:48;22.03;;;9.37;;
72649;SDS011;61467;50.674;4.618;2022-12-11T05:22:15;24.85;;;10.20;;
72649;SDS011;61467;50.674;4.618;2022-12-11T05:24:43;27.48;;;10.50;;
72649;SDS011;61467;50.674;4.618;2022-12-11T05:27:12;23.92;;;9.68;;
72649;SDS011;61467;50.674;4.618;2022-12-11T05:29:39;29.73;;;10.57;;
72649;SDS011;61467;50.674;4.618;2022-12-11T05:32:06;25.60;;;10.17;;
72649;SDS011;61467;50.674;4.618;2022-12-11T05:34:32;25.77;;;10.77;;
72649;SDS011;61467;50.674;4.618;2022-12-11T05:36:59;28.30;;;10.68;;
72649;SDS011;61467;50.674;4.618;2022-12-11T05:39:27;27.65;;;10.90;;
72649;SDS011;61467;50.674;4.618;2022-12-11T05:41:54;24.65;;;10.32;;
72649;SDS011;61467;50.674;4.618;2022-12-11T05:44:22;26.73;;;9.73;;
72649;SDS011;61467;50.674;4.618;2022-12-11T05:46:49;25.30;;;10.77;;
72649;SDS011;61467;50.674;4.618;2022-12-11T05:49:15;23.83;;;10.35;;
72649;SDS011;61467;50.674;4.618;2022-12-11T05:51:42;24.33;;;9.23;;
72649;SDS011;61467;50.674;4.618;2022-12-11T05:54:09;27.42;;;10.70;;
72649;SDS011;61467;50.674;4.618;2022-12-11T05:56:36;23.03;;;9.20;;
72649;SDS011;61467;50.674;4.618;2022-12-11T05:59:03;29.02;;;9.80;;
72649;SDS011;61467;50.674;4.618;2022-12-11T06:01:33;23.85;;;9.50;;
72649;SDS011;61467;50.674;4.618;2022-12-11T06:04:02;24.80;;;9.98;;
72649;SDS011;61467;50.674;4.618;2022-12-11T06:06:31;23.08;;;9.13;;
72649;SDS011;61467;50.674;4.618;2022-12-11T06:08:58;24.73;;;9.50;;
72649;SDS011;61467;50.674;4.618;2022-12-11T06:11:27;22.20;;;9.93;;
72649;SDS011;61467;50.674;4.618;2022-12-11T06:13:55;27.58;;;10.25;;
72649;SDS011;61467;50.674;4.618;2022-12-11T06:16:22;26.30;;;9.95;;
72649;SDS011;61467;50.674;4.618;2022-12-11T06:18:51;20.90;;;8.65;;
72649;SDS011;61467;50.674;4.618;2022-12-11T06:21:18;25.10;;;9.63;;
72649;SDS011;61467;50.674;4.618;2022-12-11T06:23:47;23.35;;;9.52;;
72649;SDS011;61467;50.674;4.618;2022-12-11T06:26:15;29.30;;;10.27;;
72649;SDS011;61467;50.674;4.618;2022-12-11T06:28:43;26.20;;;10.70;;
72649;SDS011;61467;50.674;4.618;2022-12-11T06:31:10;26.30;;;9.85;;
72649;SDS011;61467;50.674;4.618;2022-12-11T06:33:37;24.70;;;10.13;;
72649;SDS011;61467;50.674;4.618;2022-12-11T06:36:07;27.38;;;10.73;;
72649;SDS011;61467;50.674;4.618;2022-12-11T06:38:36;27.38;;;9.95;;
72649;SDS011;61467;50.674;4.618;2022-12-11T06:41:03;27.23;;;10.73;;
72649;SDS011;61467;50.674;4.618;2022-12-11T06:43:31;27.75;;;9.77;;
72649;SDS011;61467;50.674;4.618;2022-12-11T06:45:58;25.07;;;9.83;;
72649;SDS011;61467;50.674;4.618;2022-12-11T06:48:28;24.98;;;10.00;;
72649;SDS011;61467;50.674;4.618;2022-12-11T06:50:54;24.58;;;10.00;;
72649;SDS011;61467;50.674;4.618;2022-12-11T06:53:23;26.67;;;10.18;;
72649;SDS011;61467;50.674;4.618;2022-12-11T06:55:50;26.38;;;10.60;;
72649;SDS011;61467;50.674;4.618;2022-12-11T06:58:16;25.93;;;10.30;;
72649;SDS011;61467;50.674;4.618;2022-12-11T07:00:43;26.42;;;10.43;;
72649;SDS011;61467;50.674;4.618;2022-12-11T07:03:10;23.90;;;10.70;;
72649;SDS011;61467;50.674;4.618;2022-12-11T07:05:37;26.58;;;10.00;;
72649;SDS011;61467;50.674;4.618;2022-12-11T07:08:04;25.63;;;9.90;;
72649;SDS011;61467;50.674;4.618;2022-12-11T07:10:33;24.83;;;10.20;;
72649;SDS011;61467;50.674;4.618;2022-12-11T07:13:00;27.02;;;10.15;;
72649;SDS011;61467;50.674;4.618;2022-12-11T07:15:27;25.60;;;10.45;;
72649;SDS011;61467;50.674;4.618;2022-12-11T07:17:53;23.45;;;9.77;;
72649;SDS011;61467;50.674;4.618;2022-12-11T07:20:20;25.08;;;10.75;;
72649;SDS011;61467;50.674;4.618;2022-12-11T07:22:47;30.20;;;10.27;;
72649;SDS011;61467;50.674;4.618;2022-12-11T07:25:13;28.00;;;10.93;;
72649;SDS011;61467;50.674;4.618;2022-12-11T07:27:42;27.02;;;10.43;;
72649;SDS011;61467;50.674;4.618;2022-12-11T07:30:11;28.27;;;10.10;;
72649;SDS011;61467;50.674;4.618;2022-12-11T07:32:39;27.90;;;9.90;;
72649;SDS011;61467;50.674;4.618;2022-12-11T07:35:07;24.50;;;9.90;;
72649;SDS011;61467;50.674;4.618;2022-12-11T07:37:34;23.55;;;9.30;;
72649;SDS011;61467;50.674;4.618;2022-12-11T07:40:02;24.73;;;9.10;;
72649;SDS011;61467;50.674;4.618;2022-12-11T07:42:29;25.15;;;9.18;;
72649;SDS011;61467;50.674;4.618;2022-12-11T07:44:57;25.15;;;9.82;;
72649;SDS011;61467;50.674;4.618;2022-12-11T07:47:25;27.57;;;9.27;;
72649;SDS011;61467;50.674;4.618;2022-12-11T07:49:53;27.73;;;9.95;;
72649;SDS011;61467;50.674;4.618;2022-12-11T07:52:20;24.73;;;9.38;;
72649;SDS011;61467;50.674;4.618;2022-12-11T07:54:47;24.38;;;9.50;;
72649;SDS011;61467;50.674;4.618;2022-12-11T07:57:14;29.70;;;11.13;;
72649;SDS011;61467;50.674;4.618;2022-12-11T07:59:40;24.43;;;10.03;;
72649;SDS011;61467;50.674;4.618;2022-12-11T08:02:09;30.23;;;10.85;;
72649;SDS011;61467;50.674;4.618;2022-12-11T08:04:37;25.50;;;10.18;;
72649;SDS011;61467;50.674;4.618;2022-12-11T08:07:03;26.77;;;11.25;;
72649;SDS011;61467;50.674;4.618;2022-12-11T08:09:30;27.48;;;9.85;;
72649;SDS011;61467;50.674;4.618;2022-12-11T08:11:57;25.50;;;9.70;;
72649;SDS011;61467;50.674;4.618;2022-12-11T08:14:24;24.77;;;9.38;;
72649;SDS011;61467;50.674;4.618;2022-12-11T08:16:50;20.70;;;10.10;;
72649;SDS011;61467;50.674;4.618;2022-12-11T08:19:18;23.30;;;9.25;;
72649;SDS011;61467;50.674;4.618;2022-12-11T08:21:45;24.17;;;9.25;;
72649;SDS011;61467;50.674;4.618;2022-12-11T08:24:12;23.90;;;9.30;;
72649;SDS011;61467;50.674;4.618;2022-12-11T08:26:40;22.25;;;9.65;;
72649;SDS011;61467;50.674;4.618;2022-12-11T08:29:07;25.90;;;9.50;;
72649;SDS011;61467;50.674;4.618;2022-12-11T08:31:33;22.13;;;9.02;;
72649;SDS011;61467;50.674;4.618;2022-12-11T08:34:00;34.15;;;11.30;;
72649;SDS011;61467;50.674;4.618;2022-12-11T08:36:28;21.17;;;7.90;;
72649;SDS011;61467;50.674;4.618;2022-12-11T08:38:55;18.45;;;7.75;;
72649;SDS011;61467;50.674;4.618;2022-12-11T08:41:23;22.10;;;9.35;;
72649;SDS011;61467;50.674;4.618;2022-12-11T08:43:50;24.35;;;8.25;;
72649;SDS011;61467;50.674;4.618;2022-12-11T08:46:19;21.15;;;8.30;;
72649;SDS011;61467;50.674;4.618;2022-12-11T08:48:47;26.43;;;9.47;;
72649;SDS011;61467;50.674;4.618;2022-12-11T08:51:17;24.88;;;8.32;;
72649;SDS011;61467;50.674;4.618;2022-12-11T08:53:48;21.88;;;9.20;;
72649;SDS011;61467;50.674;4.618;2022-12-11T08:56:17;22.60;;;9.07;;
72649;SDS011;61467;50.674;4.618;2022-12-11T08:58:45;23.38;;;8.85;;
72649;SDS011;61467;50.674;4.618;2022-12-11T09:01:14;24.13;;;8.93;;
72649;SDS011;61467;50.674;4.618;2022-12-11T09:03:42;22.33;;;8.90;;
72649;SDS011;61467;50.674;4.618;2022-12-11T09:06:10;23.08;;;9.63;;
72649;SDS011;61467;50.674;4.618;2022-12-11T09:08:38;20.88;;;8.60;;
72649;SDS011;61467;50.674;4.618;2022-12-11T09:11:08;22.95;;;8.63;;
72649;SDS011;61467;50.674;4.618;2022-12-11T09:13:36;23.80;;;7.83;;
72649;SDS011;61467;50.674;4.618;2022-12-11T09:16:04;21.00;;;8.50;;
72649;SDS011;61467;50.674;4.618;2022-12-11T09:18:31;25.20;;;9.57;;
72649;SDS011;61467;50.674;4.618;2022-12-11T09:20:59;23.13;;;9.38;;
72649;SDS011;61467;50.674;4.618;2022-12-11T09:23:26;23.73;;;8.75;;
72649;SDS011;61467;50.674;4.618;2022-12-11T09:25:53;23.57;;;8.47;;
72649;SDS011;61467;50.674;4.618;2022-12-11T09:28:24;18.45;;;8.07;;
72649;SDS011;61467;50.674;4.618;2022-12-11T09:30:52;22.42;;;8.75;;
72649;SDS011;61467;50.674;4.618;2022-12-11T09:33:19;24.42;;;8.82;;
72649;SDS011;61467;50.674;4.618;2022-12-11T09:35:45;25.95;;;9.02;;
72649;SDS011;61467;50.674;4.618;2022-12-11T09:38:22;18.87;;;8.57;;
72649;SDS011;61467;50.674;4.618;2022-12-11T09:40:49;25.30;;;8.65;;
72649;SDS011;61467;50.674;4.618;2022-12-11T09:43:17;21.63;;;9.18;;
72649;SDS011;61467;50.674;4.618;2022-12-11T09:45:52;23.20;;;8.63;;
72649;SDS011;61467;50.674;4.618;2022-12-11T09:48:20;22.05;;;9.23;;
72649;SDS011;61467;50.674;4.618;2022-12-11T09:50:49;23.80;;;8.73;;
72649;SDS011;61467;50.674;4.618;2022-12-11T09:53:20;23.27;;;9.10;;
72649;SDS011;61467;50.674;4.618;2022-12-11T09:55:53;20.02;;;8.48;;
72649;SDS011;61467;50.674;4.618;2022-12-11T09:58:26;24.05;;;8.35;;
72649;SDS011;61467;50.674;4.618;2022-12-11T10:01:02;22.52;;;9.23;;
72649;SDS011;61467;50.674;4.618;2022-12-11T10:03:37;20.50;;;8.57;;
72649;SDS011;61467;50.674;4.618;2022-12-11T10:06:16;19.48;;;8.13;;
72649;SDS011;61467;50.674;4.618;2022-12-11T10:08:50;22.67;;;9.00;;
72649;SDS011;61467;50.674;4.618;2022-12-11T10:14:17;23.80;;;8.60;;
72649;SDS011;61467;50.674;4.618;2022-12-11T10:16:53;22.73;;;8.97;;
72649;SDS011;61467;50.674;4.618;2022-12-11T10:19:25;24.05;;;9.88;;
72649;SDS011;61467;50.674;4.618;2022-12-11T10:21:54;21.20;;;8.68;;
72649;SDS011;61467;50.674;4.618;2022-12-11T10:24:23;22.52;;;8.98;;
72649;SDS011;61467;50.674;4.618;2022-12-11T10:26:57;21.83;;;8.02;;
72649;SDS011;61467;50.674;4.618;2022-12-11T10:29:27;21.27;;;7.77;;
72649;SDS011;61467;50.674;4.618;2022-12-11T10:31:56;22.70;;;8.48;;
72649;SDS011;61467;50.674;4.618;2022-12-11T10:34:26;24.20;;;9.00;;
72649;SDS011;61467;50.674;4.618;2022-12-11T10:36:58;21.75;;;7.88;;
72649;SDS011;61467;50.674;4.618;2022-12-11T10:39:25;20.23;;;8.70;;
72649;SDS011;61467;50.674;4.618;2022-12-11T10:41:52;24.00;;;8.70;;
72649;SDS011;61467;50.674;4.618;2022-12-11T10:44:20;22.55;;;8.77;;
72649;SDS011;61467;50.674;4.618;2022-12-11T10:47:01;25.38;;;9.98;;
72649;SDS011;61467;50.674;4.618;2022-12-11T10:49:30;25.30;;;9.82;;
72649;SDS011;61467;50.674;4.618;2022-12-11T10:51:58;24.00;;;8.73;;
72649;SDS011;61467;50.674;4.618;2022-12-11T10:54:29;22.77;;;8.93;;
72649;SDS011;61467;50.674;4.618;2022-12-11T10:56:59;19.70;;;8.00;;
72649;SDS011;61467;50.674;4.618;2022-12-11T10:59:31;20.75;;;8.05;;
72649;SDS011;61467;50.674;4.618;2022-12-11T11:02:03;22.35;;;8.23;;
72649;SDS011;61467;50.674;4.618;2022-12-11T11:04:32;23.45;;;8.40;;
72649;SDS011;61467;50.674;4.618;2022-12-11T11:07:02;21.57;;;8.10;;
72649;SDS011;61467;50.674;4.618;2022-12-11T11:09:35;24.20;;;8.10;;
72649;SDS011;61467;50.674;4.618;2022-12-11T11:12:04;24.60;;;8.82;;
72649;SDS011;61467;50.674;4.618;2022-12-11T11:14:44;23.08;;;7.90;;
72649;SDS011;61467;50.674;4.618;2022-12-11T11:17:14;21.67;;;8.88;;
72649;SDS011;61467;50.674;4.618;2022-12-11T11:19:44;24.90;;;8.90;;
72649;SDS011;61467;50.674;4.618;2022-12-11T11:22:14;21.90;;;7.93;;
72649;SDS011;61467;50.674;4.618;2022-12-11T11:24:43;20.50;;;7.95;;
72649;SDS011;61467;50.674;4.618;2022-12-11T11:27:12;23.65;;;8.63;;
72649;SDS011;61467;50.674;4.618;2022-12-11T11:29:45;21.00;;;7.70;;
72649;SDS011;61467;50.674;4.618;2022-12-11T11:32:14;24.20;;;8.13;;
72649;SDS011;61467;50.674;4.618;2022-12-11T11:34:44;18.80;;;8.23;;
72649;SDS011;61467;50.674;4.618;2022-12-11T11:37:21;25.08;;;9.07;;
72649;SDS011;61467;50.674;4.618;2022-12-11T11:39:56;22.30;;;8.07;;
72649;SDS011;61467;50.674;4.618;2022-12-11T11:42:34;20.50;;;8.73;;
72649;SDS011;61467;50.674;4.618;2022-12-11T11:45:09;24.63;;;8.50;;
72649;SDS011;61467;50.674;4.618;2022-12-11T11:47:44;26.85;;;8.77;;
72649;SDS011;61467;50.674;4.618;2022-12-11T11:50:21;22.05;;;8.27;;
72649;SDS011;61467;50.674;4.618;2022-12-11T11:52:54;22.15;;;8.27;;
72649;SDS011;61467;50.674;4.618;2022-12-11T11:55:30;20.58;;;8.35;;
72649;SDS011;61467;50.674;4.618;2022-12-11T11:58:04;22.87;;;8.97;;
72649;SDS011;61467;50.674;4.618;2022-12-11T12:00:36;21.27;;;7.93;;
72649;SDS011;61467;50.674;4.618;2022-12-11T12:03:05;19.88;;;8.02;;
72649;SDS011;61467;50.674;4.618;2022-12-11T12:05:38;23.77;;;7.63;;
72649;SDS011;61467;50.674;4.618;2022-12-11T12:08:15;21.98;;;7.75;;
72649;SDS011;61467;50.674;4.618;2022-12-11T12:10:49;20.83;;;8.27;;
72649;SDS011;61467;50.674;4.618;2022-12-11T12:13:20;20.02;;;7.85;;
72649;SDS011;61467;50.674;4.618;2022-12-11T12:15:54;20.23;;;7.20;;
72649;SDS011;61467;50.674;4.618;2022-12-11T12:18:25;19.27;;;7.45;;
72649;SDS011;61467;50.674;4.618;2022-12-11T12:21:02;17.60;;;6.82;;
72649;SDS011;61467;50.674;4.618;2022-12-11T12:23:41;22.60;;;7.33;;
72649;SDS011;61467;50.674;4.618;2022-12-11T12:26:20;22.02;;;7.63;;
72649;SDS011;61467;50.674;4.618;2022-12-11T12:28:55;26.35;;;9.07;;
72649;SDS011;61467;50.674;4.618;2022-12-11T12:31:36;24.60;;;8.50;;
72649;SDS011;61467;50.674;4.618;2022-12-11T12:34:19;21.35;;;8.68;;
72649;SDS011;61467;50.674;4.618;2022-12-11T12:36:55;19.63;;;7.37;;
72649;SDS011;61467;50.674;4.618;2022-12-11T12:39:33;19.70;;;8.70;;
72649;SDS011;61467;50.674;4.618;2022-12-11T12:42:10;25.17;;;9.05;;
72649;SDS011;61467;50.674;4.618;2022-12-11T12:44:47;20.98;;;8.60;;
72649;SDS011;61467;50.674;4.618;2022-12-11T12:47:21;24.98;;;10.35;;
72649;SDS011;61467;50.674;4.618;2022-12-11T12:49:50;24.00;;;8.67;;
72649;SDS011;61467;50.674;4.618;2022-12-11T12:52:19;23.67;;;7.63;;
72649;SDS011;61467;50.674;4.618;2022-12-11T12:54:51;23.15;;;8.35;;
72649;SDS011;61467;50.674;4.618;2022-12-11T12:57:40;23.05;;;7.90;;
72649;SDS011;61467;50.674;4.618;2022-12-11T13:00:10;23.10;;;8.15;;
72649;SDS011;61467;50.674;4.618;2022-12-11T13:02:39;21.33;;;7.97;;
72649;SDS011;61467;50.674;4.618;2022-12-11T13:05:19;22.73;;;8.75;;
72649;SDS011;61467;50.674;4.618;2022-12-11T13:07:49;24.15;;;8.68;;
72649;SDS011;61467;50.674;4.618;2022-12-11T13:10:21;22.67;;;8.98;;
72649;SDS011;61467;50.674;4.618;2022-12-11T13:12:51;24.05;;;8.38;;
72649;SDS011;61467;50.674;4.618;2022-12-11T13:15:26;22.97;;;8.57;;
72649;SDS011;61467;50.674;4.618;2022-12-11T13:17:55;22.60;;;8.85;;
72649;SDS011;61467;50.674;4.618;2022-12-11T13:20:24;20.92;;;8.35;;
72649;SDS011;61467;50.674;4.618;2022-12-11T13:22:54;20.23;;;7.93;;
72649;SDS011;61467;50.674;4.618;2022-12-11T13:25:44;22.02;;;8.63;;
72649;SDS011;61467;50.674;4.618;2022-12-11T13:28:19;23.47;;;8.93;;
72649;SDS011;61467;50.674;4.618;2022-12-11T13:30:56;21.88;;;8.40;;
72649;SDS011;61467;50.674;4.618;2022-12-11T13:33:26;23.05;;;8.77;;
72649;SDS011;61467;50.674;4.618;2022-12-11T13:39:00;20.17;;;8.23;;
72649;SDS011;61467;50.674;4.618;2022-12-11T13:41:30;20.10;;;7.67;;
72649;SDS011;61467;50.674;4.618;2022-12-11T13:44:00;20.08;;;7.75;;
72649;SDS011;61467;50.674;4.618;2022-12-11T13:46:28;21.45;;;8.80;;
72649;SDS011;61467;50.674;4.618;2022-12-11T13:49:00;21.52;;;8.02;;
72649;SDS011;61467;50.674;4.618;2022-12-11T13:51:29;23.10;;;7.82;;
72649;SDS011;61467;50.674;4.618;2022-12-11T13:54:05;21.77;;;7.53;;
72649;SDS011;61467;50.674;4.618;2022-12-11T13:56:53;22.80;;;7.85;;
72649;SDS011;61467;50.674;4.618;2022-12-11T13:59:28;24.98;;;7.75;;
72649;SDS011;61467;50.674;4.618;2022-12-11T14:01:57;21.42;;;8.10;;
72649;SDS011;61467;50.674;4.618;2022-12-11T14:04:29;21.83;;;7.85;;
72649;SDS011;61467;50.674;4.618;2022-12-11T14:06:58;19.33;;;7.40;;
72649;SDS011;61467;50.674;4.618;2022-12-11T14:09:28;20.77;;;6.97;;
72649;SDS011;61467;50.674;4.618;2022-12-11T14:11:55;20.40;;;7.75;;
72649;SDS011;61467;50.674;4.618;2022-12-11T14:14:24;19.02;;;7.68;;
72649;SDS011;61467;50.674;4.618;2022-12-11T14:17:00;19.50;;;7.30;;
72649;SDS011;61467;50.674;4.618;2022-12-11T14:19:27;18.00;;;6.57;;
72649;SDS011;61467;50.674;4.618;2022-12-11T14:21:54;19.92;;;7.35;;
72649;SDS011;61467;50.674;4.618;2022-12-11T14:24:22;20.13;;;7.38;;
72649;SDS011;61467;50.674;4.618;2022-12-11T14:26:51;17.73;;;6.75;;
72649;SDS011;61467;50.674;4.618;2022-12-11T14:29:23;18.23;;;6.90;;
72649;SDS011;61467;50.674;4.618;2022-12-11T14:31:51;21.27;;;7.00;;
72649;SDS011;61467;50.674;4.618;2022-12-11T14:34:20;20.40;;;8.05;;
72649;SDS011;61467;50.674;4.618;2022-12-11T14:36:49;24.10;;;7.63;;
72649;SDS011;61467;50.674;4.618;2022-12-11T14:39:18;22.95;;;8.77;;
72649;SDS011;61467;50.674;4.618;2022-12-11T14:41:51;21.48;;;8.13;;
72649;SDS011;61467;50.674;4.618;2022-12-11T14:44:21;21.23;;;8.10;;
72649;SDS011;61467;50.674;4.618;2022-12-11T14:46:51;20.08;;;7.93;;
72649;SDS011;61467;50.674;4.618;2022-12-11T14:49:21;25.75;;;9.82;;
72649;SDS011;61467;50.674;4.618;2022-12-11T14:51:52;21.05;;;7.57;;
72649;SDS011;61467;50.674;4.618;2022-12-11T14:54:26;21.80;;;7.85;;